Time;durP1;ratioP1;P1;durP2;ratioP2;P2;SDS_P1;SDS_P2;PMS_P1;PMS_P2;Temp;Humidity;BMP_temperature;BMP_pressure;BME280_temperature;BME280_humidity;BME280_pressure;Samples;Min_cycle;Max_cycle;Signal;HPM_P1;HPM_P2
2023/09/08 00:00:40;;;;;;;0.10;0.10;;;;;;;20.10;100.00;100171.09;5070961;28;20030;-59
2023/09/08 00:03:06;;;;;;;0.10;0.10;;;;;;;20.07;100.00;100168.59;5079830;28;20559;-59
2023/09/08 00:05:31;;;;;;;0.10;0.10;;;;;;;20.03;100.00;100175.19;5080687;28;20588;-59
2023/09/08 00:07:56;;;;;;;0.20;0.20;;;;;;;20.03;100.00;100177.88;5086231;28;20032;-60
2023/09/08 00:10:22;;;;;;;0.20;0.20;;;;;;;19.98;100.00;100179.19;5043275;28;1144391;-59
2023/09/08 00:12:47;;;;;;;0.10;0.10;;;;;;;19.97;100.00;100178.31;5087604;28;20278;-60
2023/09/08 00:15:13;;;;;;;0.10;0.10;;;;;;;19.99;100.00;100179.06;5088357;28;20067;-59
2023/09/08 00:17:38;;;;;;;0.10;0.10;;;;;;;19.93;100.00;100174.09;5073415;28;20441;-59
2023/09/08 00:20:09;;;;;;;0.20;0.20;;;;;;;19.92;100.00;100172.34;5087444;28;20028;-59
2023/09/08 00:22:34;;;;;;;0.20;0.20;;;;;;;19.90;100.00;100176.13;5091288;28;20032;-60
2023/09/08 00:25:00;;;;;;;0.10;0.10;;;;;;;19.87;100.00;100173.66;5086624;28;20510;-59
2023/09/08 00:27:25;;;;;;;0.10;0.10;;;;;;;19.86;100.00;100174.59;5091526;28;20086;-59
2023/09/08 00:29:50;;;;;;;0.17;0.17;;;;;;;19.87;100.00;100177.19;5087146;28;20100;-59
2023/09/08 00:32:16;;;;;;;0.10;0.10;;;;;;;19.90;100.00;100174.28;5078614;28;20032;-60
2023/09/08 00:34:41;;;;;;;0.10;0.10;;;;;;;19.88;100.00;100173.56;5090970;28;20036;-60
2023/09/08 00:37:07;;;;;;;0.10;0.10;;;;;;;19.83;100.00;100173.00;5075430;28;20232;-59
2023/09/08 00:39:35;;;;;;;0.10;0.10;;;;;;;19.81;100.00;100172.22;5069977;28;20063;-60
2023/09/08 00:42:01;;;;;;;0.20;0.20;;;;;;;19.77;100.00;100173.38;5072691;28;20024;-60
2023/09/08 00:44:26;;;;;;;0.10;0.10;;;;;;;19.74;100.00;100172.72;5088450;28;20046;-62
2023/09/08 00:46:52;;;;;;;0.10;0.10;;;;;;;19.70;100.00;100166.69;5089449;28;20027;-60
2023/09/08 00:49:17;;;;;;;0.10;0.10;;;;;;;19.69;100.00;100164.09;5090247;28;20027;-60
2023/09/08 00:51:42;;;;;;;0.20;0.20;;;;;;;19.65;100.00;100168.84;5078234;28;20103;-61
2023/09/08 00:54:08;;;;;;;0.20;0.20;;;;;;;19.62;100.00;100164.50;5070552;28;20374;-61
2023/09/08 00:56:36;;;;;;;0.10;0.10;;;;;;;19.63;100.00;100173.47;5079468;28;20048;-60
2023/09/08 00:59:02;;;;;;;0.10;0.10;;;;;;;19.57;100.00;100172.03;5070128;28;20079;-61
2023/09/08 01:04:03;;;;;;;0.17;0.17;;;;;;;19.51;100.00;100168.88;5913343;22;20933;-61
2023/09/08 01:06:29;;;;;;;0.10;0.10;;;;;;;19.44;100.00;100160.34;5085989;22;20044;-61
2023/09/08 01:11:23;;;;;;;0.17;0.17;;;;;;;19.44;100.00;100164.84;5038099;28;20097;-59
2023/09/08 01:13:48;;;;;;;0.20;0.20;;;;;;;19.41;100.00;100165.06;5046240;28;20033;-60
2023/09/08 01:16:14;;;;;;;0.10;0.10;;;;;;;19.33;100.00;100160.19;5050694;28;20036;-59
2023/09/08 01:18:40;;;;;;;0.10;0.10;;;;;;;19.37;100.00;100160.84;5041397;28;20439;-59
2023/09/08 01:21:32;;;;;;;0.20;0.20;;;;;;;19.34;100.00;100161.06;5049147;28;20395;-59
2023/09/08 01:24:06;;;;;;;0.20;0.20;;;;;;;19.32;100.00;100154.91;5050564;28;20036;-59
2023/09/08 01:26:36;;;;;;;0.17;0.17;;;;;;;19.31;100.00;100161.25;5041336;28;20052;-60
2023/09/08 01:29:05;;;;;;;0.20;0.20;;;;;;;19.28;100.00;100161.41;5051198;28;20032;-59
2023/09/08 01:31:30;;;;;;;0.13;0.13;;;;;;;19.31;100.00;100158.53;5050930;28;20116;-60
2023/09/08 01:33:56;;;;;;;0.20;0.20;;;;;;;19.33;100.00;100157.50;5045988;28;20539;-59
2023/09/08 01:36:21;;;;;;;0.20;0.20;;;;;;;19.33;100.00;100162.00;5051036;28;20139;-61
2023/09/08 01:38:47;;;;;;;0.20;0.20;;;;;;;19.28;100.00;100164.97;5051024;28;20025;-60
2023/09/08 01:41:12;;;;;;;0.20;0.20;;;;;;;19.25;100.00;100158.91;5047954;28;20056;-61
2023/09/08 01:43:38;;;;;;;0.20;0.20;;;;;;;19.24;100.00;100165.28;5041692;28;20032;-61
2023/09/08 01:46:03;;;;;;;0.13;0.13;;;;;;;19.19;100.00;100164.72;5030893;28;20461;-61
2023/09/08 01:48:29;;;;;;;0.20;0.20;;;;;;;19.16;100.00;100159.53;5037710;28;20021;-58
2023/09/08 01:50:54;;;;;;;0.20;0.20;;;;;;;19.16;100.00;100159.53;5014840;28;20033;-61
2023/09/08 01:53:19;;;;;;;0.20;0.20;;;;;;;19.14;100.00;100166.84;5044395;28;20115;-61
2023/09/08 01:55:45;;;;;;;0.20;0.20;;;;;;;19.15;100.00;100163.19;5048991;28;20108;-59
2023/09/08 01:58:10;;;;;;;0.20;0.20;;;;;;;19.10;100.00;100160.78;5047435;28;20029;-59
2023/09/08 02:00:36;;;;;;;0.10;0.10;;;;;;;19.08;100.00;100162.72;5030503;28;20444;-59
2023/09/08 02:03:01;;;;;;;0.10;0.10;;;;;;;19.10;100.00;100165.31;5030251;28;20025;-60
2023/09/08 02:05:27;;;;;;;0.20;0.20;;;;;;;19.06;100.00;100153.00;5029973;28;20352;-61
2023/09/08 02:07:52;;;;;;;0.20;0.20;;;;;;;19.05;100.00;100167.44;5031628;28;20024;-58
2023/09/08 02:10:18;;;;;;;0.20;0.20;;;;;;;19.02;100.00;100160.44;5052198;28;20040;-61
2023/09/08 02:12:44;;;;;;;0.10;0.10;;;;;;;19.00;100.00;100164.16;5070379;28;20021;-61
2023/09/08 02:15:11;;;;;;;0.20;0.20;;;;;;;18.96;100.00;100162.66;5070195;28;20395;-59
2023/09/08 02:17:36;;;;;;;0.20;0.20;;;;;;;18.92;100.00;100159.28;5058257;28;20484;-61
2023/09/08 02:20:03;;;;;;;0.20;0.20;;;;;;;18.92;100.00;100161.09;5050257;28;20076;-60
2023/09/08 02:22:28;;;;;;;0.20;0.20;;;;;;;18.91;100.00;100162.09;5050147;28;20470;-60
2023/09/08 02:24:53;;;;;;;0.20;0.20;;;;;;;18.98;100.00;100161.56;5051808;28;20043;-60
2023/09/08 02:27:19;;;;;;;0.20;0.20;;;;;;;18.97;100.00;100167.06;5050683;28;20025;-60
2023/09/08 02:29:44;;;;;;;0.20;0.20;;;;;;;18.95;100.00;100166.28;5049831;28;20028;-61
2023/09/08 02:32:10;;;;;;;0.10;0.10;;;;;;;18.93;100.00;100163.69;5063980;28;20028;-59
2023/09/08 02:34:39;;;;;;;0.10;0.10;;;;;;;18.90;100.00;100168.41;5070116;28;20032;-60
2023/09/08 02:37:04;;;;;;;0.20;0.20;;;;;;;18.86;100.00;100177.69;5067216;28;20039;-60
2023/09/08 02:39:30;;;;;;;0.20;0.20;;;;;;;18.83;100.00;100161.72;5068557;28;20025;-60
2023/09/08 02:41:55;;;;;;;0.20;0.20;;;;;;;18.82;100.00;100171.63;5054098;28;20025;-60
2023/09/08 02:44:23;;;;;;;0.20;0.20;;;;;;;18.80;100.00;100173.53;5049702;28;20025;-60
2023/09/08 02:46:49;;;;;;;0.13;0.13;;;;;;;18.79;100.00;100181.72;5049424;28;20526;-60
2023/09/08 02:49:14;;;;;;;0.20;0.20;;;;;;;18.78;100.00;100177.31;5048998;28;20020;-61
2023/09/08 02:51:39;;;;;;;0.15;0.15;;;;;;;18.72;100.00;100174.97;5051408;28;20029;-60
2023/09/08 02:54:05;;;;;;;0.20;0.20;;;;;;;18.74;100.00;100183.84;5031197;28;20494;-60
2023/09/08 02:56:30;;;;;;;0.20;0.20;;;;;;;18.69;100.00;100191.34;5059859;28;20033;-60
2023/09/08 02:58:56;;;;;;;0.20;0.20;;;;;;;18.66;100.00;100194.25;5049560;28;20112;-60
2023/09/08 03:01:22;;;;;;;0.20;0.20;;;;;;;18.73;100.00;100187.50;5079886;28;20028;-59
2023/09/08 03:03:48;;;;;;;0.20;0.20;;;;;;;18.67;100.00;100187.88;5074530;28;20521;-59
2023/09/08 03:06:15;;;;;;;0.13;0.13;;;;;;;18.70;100.00;100187.72;5061969;28;20024;-60
2023/09/08 03:08:41;;;;;;;0.20;0.20;;;;;;;18.64;100.00;100188.06;5051502;28;20459;-60
2023/09/08 03:11:08;;;;;;;0.20;0.20;;;;;;;18.65;100.00;100192.53;5065828;28;20102;-59
2023/09/08 03:13:36;;;;;;;0.20;0.20;;;;;;;18.64;100.00;100188.06;5051744;28;20116;-59
2023/09/08 03:16:04;;;;;;;0.20;0.20;;;;;;;18.67;100.00;100195.97;5049142;28;20028;-59
2023/09/08 03:18:29;;;;;;;0.20;0.20;;;;;;;18.66;100.00;100194.25;5057232;28;20021;-59
2023/09/08 03:20:55;;;;;;;0.20;0.20;;;;;;;18.61;100.00;100194.53;5065977;28;20039;-61
2023/09/08 03:23:20;;;;;;;0.20;0.20;;;;;;;18.58;100.00;100189.34;5059960;28;20094;-60
2023/09/08 03:25:45;;;;;;;0.20;0.20;;;;;;;18.57;100.00;100202.88;5069062;28;20395;-60
2023/09/08 03:28:11;;;;;;;0.20;0.20;;;;;;;18.53;100.00;100198.66;5068881;28;20116;-60
2023/09/08 03:30:37;;;;;;;0.20;0.20;;;;;;;18.51;100.00;100197.88;5069321;28;20043;-60
2023/09/08 03:33:02;;;;;;;0.20;0.20;;;;;;;18.47;100.00;100191.81;5064912;28;20572;-60
2023/09/08 03:35:28;;;;;;;0.20;0.20;;;;;;;18.46;100.00;100200.00;5068454;28;20028;-60
2023/09/08 03:37:53;;;;;;;0.20;0.20;;;;;;;18.44;100.00;100204.59;5065359;28;20024;-60
2023/09/08 03:40:19;;;;;;;0.10;0.10;;;;;;;18.43;100.00;100198.38;5068644;28;20399;-60
2023/09/08 03:42:44;;;;;;;0.20;0.20;;;;;;;18.42;100.00;100198.47;5067825;28;20119;-60
2023/09/08 03:45:09;;;;;;;0.20;0.20;;;;;;;18.41;100.00;100202.09;5050471;28;20025;-60
2023/09/08 03:47:35;;;;;;;0.20;0.20;;;;;;;18.37;100.00;100210.34;5047842;28;20567;-60
2023/09/08 03:50:00;;;;;;;0.20;0.20;;;;;;;18.37;100.00;100201.38;5047986;28;20029;-60
2023/09/08 03:52:26;;;;;;;0.20;0.20;;;;;;;18.34;100.00;100205.16;5050626;28;20029;-60
2023/09/08 03:54:51;;;;;;;0.20;0.20;;;;;;;18.36;100.00;100199.69;5048385;28;20075;-60
2023/09/08 03:57:17;;;;;;;0.20;0.20;;;;;;;18.36;100.00;100203.25;5048196;28;20036;-61
2023/09/08 03:59:42;;;;;;;0.20;0.20;;;;;;;18.36;100.00;100205.06;5064960;28;20024;-61
2023/09/08 04:02:07;;;;;;;0.20;0.20;;;;;;;18.30;100.00;100206.28;5062231;28;20107;-61
2023/09/08 04:04:33;;;;;;;0.10;0.10;;;;;;;18.22;100.00;100207.72;5067877;28;20028;-60
2023/09/08 04:06:58;;;;;;;0.20;0.20;;;;;;;18.20;100.00;100210.50;5063513;28;20083;-60
2023/09/08 04:09:24;;;;;;;0.20;0.20;;;;;;;18.19;100.00;100210.59;5051613;28;20045;-60
2023/09/08 04:11:49;;;;;;;0.20;0.20;;;;;;;18.15;100.00;100207.22;5068652;28;20040;-60
2023/09/08 04:14:14;;;;;;;0.10;0.10;;;;;;;18.14;100.00;100210.88;5053644;28;20087;-60
2023/09/08 04:16:40;;;;;;;0.20;0.20;;;;;;;18.11;100.00;100211.06;5059675;28;20020;-60
2023/09/08 04:19:05;;;;;;;0.10;0.10;;;;;;;18.12;100.00;100217.34;5062545;28;20021;-60
2023/09/08 04:21:31;;;;;;;0.17;0.17;;;;;;;18.07;100.00;100214.03;5048429;28;20131;-60
2023/09/08 04:23:56;;;;;;;0.20;0.20;;;;;;;18.04;100.00;100214.19;5054674;28;20020;-60
2023/09/08 04:26:21;;;;;;;0.20;0.20;;;;;;;18.02;100.00;100214.28;5051841;28;20077;-60
2023/09/08 04:28:47;;;;;;;0.20;0.20;;;;;;;17.99;100.00;100210.94;5047560;28;20021;-60
2023/09/08 04:31:12;;;;;;;0.20;0.20;;;;;;;17.98;100.00;100211.88;5053966;28;20028;-60
2023/09/08 04:33:38;;;;;;;0.20;0.20;;;;;;;17.97;100.00;100208.31;5049993;28;20025;-60
2023/09/08 04:36:04;;;;;;;0.20;0.20;;;;;;;17.96;100.00;100206.59;5063621;28;20028;-60
2023/09/08 04:38:30;;;;;;;0.20;0.20;;;;;;;17.95;100.00;100212.06;5054648;28;20433;-60
2023/09/08 04:40:55;;;;;;;0.20;0.20;;;;;;;17.93;100.00;100217.56;5066723;28;20364;-60
2023/09/08 04:43:20;;;;;;;0.20;0.20;;;;;;;17.90;100.00;100206.09;5053367;28;20044;-60
2023/09/08 04:45:46;;;;;;;0.20;0.20;;;;;;;17.74;100.00;100194.53;5047411;28;20025;-60
2023/09/08 04:48:11;;;;;;;0.10;0.10;;;;;;;17.85;100.00;100219.84;5050844;28;20031;-60
2023/09/08 04:50:37;;;;;;;0.20;0.20;;;;;;;17.86;100.00;100224.25;5051459;28;20098;-60
2023/09/08 04:53:02;;;;;;;0.20;0.20;;;;;;;17.83;100.00;100215.47;5086450;28;20376;-60
2023/09/08 04:55:28;;;;;;;0.20;0.20;;;;;;;17.83;100.00;100227.13;5065277;28;20032;-60
2023/09/08 04:57:53;;;;;;;0.20;0.20;;;;;;;17.81;100.00;100217.38;5067388;28;20060;-60
2023/09/08 05:00:19;;;;;;;0.20;0.20;;;;;;;17.81;100.00;100222.78;5061731;28;20459;-60
2023/09/08 05:02:44;;;;;;;0.20;0.20;;;;;;;17.81;100.00;100226.34;5068993;28;20286;-60
2023/09/08 05:05:10;;;;;;;0.20;0.20;;;;;;;17.78;100.00;100223.84;5070083;28;20423;-60
2023/09/08 05:07:35;;;;;;;0.20;0.20;;;;;;;17.75;100.00;100223.16;5057195;28;20033;-60
2023/09/08 05:10:01;;;;;;;0.13;0.13;;;;;;;17.72;100.00;100224.22;5059697;28;20150;-60
2023/09/08 05:12:26;;;;;;;0.20;0.20;;;;;;;17.75;100.00;100223.16;5071515;28;20253;-60
2023/09/08 05:14:56;;;;;;;0.20;0.20;;;;;;;17.78;100.00;100239.09;5068803;28;20082;-61
2023/09/08 05:17:23;;;;;;;0.20;0.20;;;;;;;17.80;100.00;100226.44;5051660;28;20037;-60
2023/09/08 05:19:48;;;;;;;0.20;0.20;;;;;;;17.82;100.00;100229.91;5050976;28;20040;-61
2023/09/08 05:22:14;;;;;;;0.17;0.17;;;;;;;17.83;100.00;100232.50;5055495;28;20033;-61
2023/09/08 05:24:39;;;;;;;0.20;0.20;;;;;;;17.87;100.00;100238.59;5071153;28;20063;-60
2023/09/08 05:27:04;;;;;;;0.20;0.20;;;;;;;17.93;100.00;100243.59;5070893;28;20024;-60
2023/09/08 05:29:30;;;;;;;0.20;0.20;;;;;;;18.00;100.00;100239.59;5070014;28;20039;-60
2023/09/08 05:31:55;;;;;;;0.20;0.20;;;;;;;18.05;100.00;100238.38;5053288;28;20075;-60
2023/09/08 05:34:21;;;;;;;0.20;0.20;;;;;;;18.09;100.00;100239.91;5061612;28;20024;-60
2023/09/08 05:36:47;;;;;;;0.20;0.20;;;;;;;18.16;100.00;100232.31;5067076;28;20024;-59
2023/09/08 05:39:15;;;;;;;0.20;0.20;;;;;;;18.12;100.00;100231.63;5065428;28;20032;-60
2023/09/08 05:41:40;;;;;;;0.20;0.20;;;;;;;18.20;100.00;100237.44;5067402;28;20029;-61
2023/09/08 05:44:05;;;;;;;0.20;0.20;;;;;;;18.29;100.00;100242.28;5051060;28;20041;-60
2023/09/08 05:46:31;;;;;;;0.20;0.20;;;;;;;18.38;100.00;100241.69;5051560;28;20453;-60
2023/09/08 05:48:56;;;;;;;0.20;0.20;;;;;;;18.44;100.00;100245.00;5052925;28;20021;-60
2023/09/08 05:51:22;;;;;;;0.20;0.20;;;;;;;18.52;100.00;100248.97;5050985;28;20060;-60
2023/09/08 05:53:47;;;;;;;0.20;0.20;;;;;;;18.60;100.00;100251.22;5053044;28;20036;-60
2023/09/08 05:56:13;;;;;;;0.20;0.20;;;;;;;18.66;100.00;100256.22;5066235;28;20490;-60
2023/09/08 05:58:38;;;;;;;0.20;0.20;;;;;;;18.74;100.00;100262.88;5070681;28;20139;-61
2023/09/08 06:01:04;;;;;;;0.20;0.20;;;;;;;18.81;100.00;100266.06;5067631;28;20024;-61
2023/09/08 06:03:30;;;;;;;0.20;0.20;;;;;;;18.90;100.00;100265.47;5070761;28;20375;-61
2023/09/08 06:05:56;;;;;;;0.20;0.20;;;;;;;19.03;100.00;100261.03;5066785;28;20032;-61
2023/09/08 06:08:22;;;;;;;0.20;0.20;;;;;;;19.16;100.00;100262.84;5069105;28;20075;-61
2023/09/08 06:10:48;;;;;;;0.10;0.10;;;;;;;19.30;100.00;100253.94;5070018;28;20036;-60
2023/09/08 06:13:13;;;;;;;0.10;0.10;;;;;;;19.45;100.00;100263.72;5054461;28;20111;-60
2023/09/08 06:15:38;;;;;;;0.20;0.20;;;;;;;19.58;100.00;100259.25;5051602;28;20082;-60
2023/09/08 06:18:04;;;;;;;0.20;0.20;;;;;;;19.73;100.00;100258.25;5054962;28;20199;-61
2023/09/08 06:20:30;;;;;;;0.20;0.20;;;;;;;19.85;100.00;100262.81;5070058;28;20497;-61
2023/09/08 06:22:55;;;;;;;0.20;0.20;;;;;;;20.05;100.00;100269.63;5069980;28;20036;-60
2023/09/08 06:25:21;;;;;;;0.20;0.20;;;;;;;20.31;100.00;100266.88;5053900;28;20036;-60
2023/09/08 06:27:46;;;;;;;0.20;0.20;;;;;;;20.79;100.00;100263.50;5050222;28;20027;-61
2023/09/08 06:30:16;;;;;;;0.20;0.20;;;;;;;21.41;100.00;100255.44;5052697;28;20032;-60
2023/09/08 06:32:42;;;;;;;0.15;0.15;;;;;;;21.95;100.00;100256.78;5059625;28;20028;-61
2023/09/08 06:35:08;;;;;;;0.10;0.10;;;;;;;22.40;97.40;100258.72;5068672;28;20480;-60
2023/09/08 06:37:39;;;;;;;0.13;0.13;;;;;;;22.48;92.65;100255.41;5051288;28;20074;-60
2023/09/08 06:40:05;;;;;;;0.20;0.20;;;;;;;22.37;90.67;100264.38;5060900;28;20086;-60
2023/09/08 06:42:31;;;;;;;0.20;0.20;;;;;;;22.42;91.63;100273.00;5070152;28;20032;-60
2023/09/08 06:44:57;;;;;;;0.10;0.10;;;;;;;23.70;92.20;100269.97;5058953;28;20024;-60
2023/09/08 06:47:22;;;;;;;0.10;0.10;;;;;;;25.72;82.61;100267.56;5049662;28;20032;-61
2023/09/08 06:49:47;;;;;;;0.10;0.10;;;;;;;27.51;70.61;100265.00;5052237;28;20132;-61
2023/09/08 06:52:13;;;;;;;0.10;0.10;;;;;;;28.86;63.05;100272.13;5049611;28;20028;-59
2023/09/08 06:54:38;;;;;;;0.10;0.10;;;;;;;29.52;57.16;100265.00;5056528;28;20127;-60
2023/09/08 06:57:04;;;;;;;0.10;0.10;;;;;;;29.26;56.87;100286.09;5069413;28;20027;-60
2023/09/08 06:59:29;;;;;;;0.10;0.10;;;;;;;28.66;59.17;100279.66;5060157;28;20079;-60
2023/09/08 07:01:55;;;;;;;0.10;0.10;;;;;;;27.94;61.13;100279.75;5070332;28;20039;-60
2023/09/08 07:04:20;;;;;;;0.10;0.10;;;;;;;27.30;63.04;100284.38;5084319;28;20470;-60
2023/09/08 07:06:46;;;;;;;0.08;0.08;;;;;;;26.67;66.30;100279.63;5053305;28;20109;-60
2023/09/08 07:09:12;;;;;;;0.10;0.10;;;;;;;26.35;68.44;100277.16;5062145;28;20123;-60
2023/09/08 07:11:37;;;;;;;0.10;0.10;;;;;;;26.02;71.47;100283.00;5057794;28;20029;-61
2023/09/08 07:14:03;;;;;;;0.10;0.10;;;;;;;26.16;71.66;100279.00;5052067;28;20025;-61
2023/09/08 07:16:28;;;;;;;0.10;0.10;;;;;;;26.56;70.97;100277.00;5065579;28;20461;-61
2023/09/08 07:18:54;;;;;;;0.10;0.10;;;;;;;27.11;69.96;100278.94;5067559;28;20444;-60
2023/09/08 07:21:19;;;;;;;0.10;0.10;;;;;;;27.64;66.52;100277.31;5068832;28;20056;-61
2023/09/08 07:23:45;;;;;;;0.10;0.10;;;;;;;28.01;63.68;100286.34;5057602;28;20033;-60
2023/09/08 07:26:10;;;;;;;0.10;0.10;;;;;;;28.01;63.08;100278.13;5059318;28;20035;-60
2023/09/08 07:28:36;;;;;;;0.10;0.10;;;;;;;28.18;62.86;100277.31;5049196;28;20017;-60
2023/09/08 07:31:05;;;;;;;0.00;0.00;;;;;;;28.60;62.38;100282.16;5058244;28;20021;-61
2023/09/08 07:33:31;;;;;;;0.10;0.10;;;;;;;28.98;59.99;100279.06;5049161;28;20083;-60
2023/09/08 07:35:56;;;;;;;0.00;0.00;;;;;;;28.87;60.48;100291.13;5052463;28;20037;-61
2023/09/08 07:38:21;;;;;;;0.00;0.00;;;;;;;29.22;59.29;100287.47;5070784;28;20533;-60
2023/09/08 07:40:47;;;;;;;0.00;0.00;;;;;;;29.34;58.86;100286.16;5065676;28;20482;-60
2023/09/08 07:43:12;;;;;;;0.10;0.10;;;;;;;29.60;58.58;100276.03;5048770;28;20107;-61
2023/09/08 07:45:40;;;;;;;0.10;0.10;;;;;;;29.81;57.64;100284.69;5048312;28;20029;-61
2023/09/08 07:48:06;;;;;;;0.10;0.10;;;;;;;29.95;56.43;100284.06;5051061;28;20468;-61
2023/09/08 07:50:31;;;;;;;0.10;0.10;;;;;;;29.99;57.41;100285.44;5048700;28;20163;-61
2023/09/08 07:52:57;;;;;;;0.10;0.10;;;;;;;30.14;55.75;100289.25;5048527;28;20127;-60
2023/09/08 07:55:23;;;;;;;0.00;0.00;;;;;;;30.17;55.48;100294.41;5057504;28;20020;-61
2023/09/08 07:57:50;;;;;;;0.00;0.00;;;;;;;30.07;56.16;100293.69;5051251;28;20037;-61
2023/09/08 08:00:17;;;;;;;0.00;0.00;;;;;;;30.19;57.15;100283.25;5052361;28;20027;-60
2023/09/08 08:02:48;;;;;;;0.00;0.00;;;;;;;30.30;56.16;100285.72;5053042;28;20028;-61
2023/09/08 08:05:15;;;;;;;0.10;0.10;;;;;;;30.53;55.91;100275.78;5046987;28;20116;-61
2023/09/08 08:07:42;;;;;;;0.00;0.00;;;;;;;30.73;55.18;100285.41;5048392;28;20021;-61
2023/09/08 08:10:08;;;;;;;0.00;0.00;;;;;;;30.67;54.97;100278.72;5036305;28;20094;-60
2023/09/08 08:12:34;;;;;;;0.00;0.00;;;;;;;30.63;56.14;100280.09;5068916;28;20036;-61
2023/09/08 08:14:59;;;;;;;0.00;0.00;;;;;;;30.90;54.67;100270.69;5050062;28;20475;-60
2023/09/08 08:17:26;;;;;;;0.00;0.00;;;;;;;31.02;53.78;100273.94;5051638;28;20032;-61
2023/09/08 08:19:52;;;;;;;0.00;0.00;;;;;;;31.18;53.05;100272.00;5048326;28;20036;-60
2023/09/08 08:22:17;;;;;;;0.00;0.00;;;;;;;31.34;52.77;100274.75;5050594;28;20472;-60
2023/09/08 08:24:43;;;;;;;0.00;0.00;;;;;;;31.46;52.45;100273.34;5053524;28;20354;-61
2023/09/08 08:27:08;;;;;;;0.00;0.00;;;;;;;31.57;51.62;100281.19;5066755;28;20035;-61
2023/09/08 08:29:33;;;;;;;0.00;0.00;;;;;;;31.59;52.83;100272.75;5049534;28;20029;-61
2023/09/08 08:31:59;;;;;;;0.00;0.00;;;;;;;31.65;52.59;100277.53;5047444;28;20033;-61
2023/09/08 08:34:24;;;;;;;0.00;0.00;;;;;;;31.56;52.83;100275.88;5056054;28;20032;-60
2023/09/08 08:36:50;;;;;;;0.00;0.00;;;;;;;31.76;51.81;100275.25;5071330;28;20406;-61
2023/09/08 08:39:15;;;;;;;0.00;0.00;;;;;;;32.15;50.60;100278.03;5071576;28;20044;-60
2023/09/08 08:41:41;;;;;;;0.00;0.00;;;;;;;32.20;50.36;100283.84;5069650;28;20104;-60
2023/09/08 08:44:09;;;;;;;0.00;0.00;;;;;;;32.41;50.35;100274.94;5071449;28;20437;-61
2023/09/08 08:46:40;;;;;;;0.00;0.00;;;;;;;32.86;48.30;100275.78;5069506;28;20075;-61
2023/09/08 08:49:06;;;;;;;0.00;0.00;;;;;;;32.76;49.20;100269.69;5071843;28;20375;-61
2023/09/08 08:51:32;;;;;;;0.00;0.00;;;;;;;32.85;48.74;100268.56;5069293;28;20031;-60
2023/09/08 08:53:58;;;;;;;0.00;0.00;;;;;;;32.77;48.28;100276.91;5068134;28;20028;-60
2023/09/08 08:56:23;;;;;;;0.00;0.00;;;;;;;32.96;48.58;100279.19;5059007;28;20035;-61
2023/09/08 08:58:50;;;;;;;0.00;0.00;;;;;;;33.03;49.01;100271.03;5067080;28;20349;-60
2023/09/08 09:01:20;;;;;;;0.00;0.00;;;;;;;33.17;47.78;100268.28;5055397;28;20032;-60
2023/09/08 09:03:49;;;;;;;0.00;0.00;;;;;;;33.28;48.14;100269.69;5069734;28;20375;-60
2023/09/08 09:06:14;;;;;;;0.00;0.00;;;;;;;33.36;48.24;100273.22;5053693;28;20369;-59
2023/09/08 09:08:43;;;;;;;0.00;0.00;;;;;;;33.56;47.32;100262.50;5057370;28;20028;-60
2023/09/08 09:11:09;;;;;;;0.00;0.00;;;;;;;33.77;46.76;100264.50;5054266;28;20087;-60
2023/09/08 09:13:35;;;;;;;0.00;0.00;;;;;;;34.07;46.54;100266.19;5061510;28;20055;-61
2023/09/08 09:16:03;;;;;;;0.00;0.00;;;;;;;33.59;47.22;100267.66;5071045;28;20055;-60
2023/09/08 09:18:31;;;;;;;0.00;0.00;;;;;;;34.03;47.00;100270.38;5068342;28;20021;-63
2023/09/08 09:20:59;;;;;;;0.00;0.00;;;;;;;34.00;45.60;100276.28;5054161;28;20064;-63
2023/09/08 09:23:31;;;;;;;0.00;0.00;;;;;;;33.96;46.12;100264.78;5050321;28;20043;-63
2023/09/08 09:25:58;;;;;;;0.00;0.00;;;;;;;34.06;46.77;100264.47;5076045;28;20034;-63
2023/09/08 09:28:24;;;;;;;0.00;0.00;;;;;;;34.28;46.18;100256.00;5076612;28;20028;-64
2023/09/08 09:30:52;;;;;;;0.00;0.00;;;;;;;34.42;46.20;100262.56;5060454;28;20040;-64
2023/09/08 09:33:18;;;;;;;0.00;0.00;;;;;;;34.49;46.46;100263.50;5051337;28;20057;-64
2023/09/08 09:35:46;;;;;;;0.00;0.00;;;;;;;34.61;45.46;100261.94;5054535;28;20079;-64
2023/09/08 09:38:12;;;;;;;0.00;0.00;;;;;;;34.86;45.52;100257.66;5050937;28;20097;-61
2023/09/08 09:40:39;;;;;;;0.00;0.00;;;;;;;35.11;44.62;100258.97;5054963;28;20060;-61
2023/09/08 09:43:05;;;;;;;0.00;0.00;;;;;;;35.35;44.46;100260.41;5064099;28;20038;-61
2023/09/08 09:45:34;;;;;;;0.00;0.00;;;;;;;35.67;43.91;100257.00;5070764;28;20031;-61
2023/09/08 09:48:01;;;;;;;0.00;0.00;;;;;;;35.65;43.05;100259.97;5064543;28;20028;-61
2023/09/08 09:50:35;;;;;;;0.00;0.00;;;;;;;35.71;43.11;100259.19;5050518;28;20112;-61
2023/09/08 09:53:08;;;;;;;0.00;0.00;;;;;;;35.73;43.16;100257.03;5084363;28;20451;-62
2023/09/08 09:55:36;;;;;;;0.00;0.00;;;;;;;36.03;43.76;100251.25;5062706;28;20028;-61
2023/09/08 09:58:03;;;;;;;0.00;0.00;;;;;;;36.31;43.04;100247.25;5058780;28;20028;-61
2023/09/08 10:00:31;;;;;;;0.00;0.00;;;;;;;36.12;42.36;100249.97;5055747;28;20034;-61
2023/09/08 10:02:57;;;;;;;0.00;0.00;;;;;;;36.22;41.88;100250.44;5069169;28;20025;-61
2023/09/08 10:05:26;;;;;;;0.00;0.00;;;;;;;36.31;42.31;100249.19;5051674;28;20032;-61
2023/09/08 10:07:52;;;;;;;0.00;0.00;;;;;;;35.64;42.89;100255.50;5065879;28;20033;-61
2023/09/08 10:10:18;;;;;;;0.00;0.00;;;;;;;35.50;43.06;100242.66;5060776;28;20431;-61
2023/09/08 10:12:45;;;;;;;0.00;0.00;;;;;;;35.71;42.79;100248.09;5069398;28;20025;-61
2023/09/08 10:15:13;;;;;;;0.00;0.00;;;;;;;36.00;42.98;100246.13;5067933;28;20033;-61
2023/09/08 10:17:42;;;;;;;0.00;0.00;;;;;;;35.89;42.23;100246.69;5069167;28;20025;-61
2023/09/08 10:20:10;;;;;;;0.00;0.00;;;;;;;36.06;43.15;100240.59;5069411;28;20472;-62
2023/09/08 10:22:38;;;;;;;0.00;0.00;;;;;;;36.16;42.24;100251.28;5063891;28;20400;-62
2023/09/08 10:25:06;;;;;;;0.00;0.00;;;;;;;35.62;43.15;100245.69;5055035;28;20024;-61
2023/09/08 10:27:32;;;;;;;0.00;0.00;;;;;;;35.48;44.28;100233.72;5061326;28;20059;-62
2023/09/08 10:30:01;;;;;;;0.00;0.00;;;;;;;36.22;42.63;100234.69;5051168;28;20032;-61
2023/09/08 10:32:27;;;;;;;0.00;0.00;;;;;;;36.40;42.05;100240.50;5049598;28;20482;-62
2023/09/08 10:34:54;;;;;;;0.00;0.00;;;;;;;36.51;41.54;100242.66;5051318;28;20033;-61
2023/09/08 10:37:21;;;;;;;0.00;0.00;;;;;;;36.16;42.71;100231.91;5049440;28;20491;-61
2023/09/08 10:39:46;;;;;;;0.00;0.00;;;;;;;36.72;42.14;100228.56;5053059;28;20104;-61
2023/09/08 10:42:18;;;;;;;0.00;0.00;;;;;;;37.24;40.41;100233.31;5059108;28;20626;-61
2023/09/08 10:44:55;;;;;;;0.00;0.00;;;;;;;37.51;40.33;100226.63;5059243;28;20028;-61
2023/09/08 10:47:39;;;;;;;0.00;0.00;;;;;;;37.74;39.57;100226.16;5061386;28;20388;-61
2023/09/08 10:50:05;;;;;;;0.00;0.00;;;;;;;37.64;39.32;100221.03;5055653;28;20040;-61
2023/09/08 10:52:33;;;;;;;0.00;0.00;;;;;;;37.44;40.36;100220.25;5069508;28;20463;-61
2023/09/08 10:54:58;;;;;;;0.00;0.00;;;;;;;37.70;39.83;100224.88;5065363;28;20107;-61
2023/09/08 10:57:25;;;;;;;0.00;0.00;;;;;;;37.61;38.80;100215.91;5068908;28;20123;-62
2023/09/08 10:59:55;;;;;;;0.00;0.00;;;;;;;37.66;39.96;100213.31;5064155;28;20032;-60
2023/09/08 11:02:54;;;;;;;0.00;0.00;;;;;;;37.83;39.33;100220.13;5056419;28;20033;-60
2023/09/08 11:05:21;;;;;;;0.00;0.00;;;;;;;37.85;39.46;100217.13;5048563;28;20075;-61
2023/09/08 11:07:53;;;;;;;0.00;0.00;;;;;;;38.04;39.24;100210.63;5060373;28;20035;-61
2023/09/08 11:10:18;;;;;;;0.00;0.00;;;;;;;37.94;37.98;100211.06;5059574;28;20056;-61
2023/09/08 11:12:44;;;;;;;0.00;0.00;;;;;;;37.87;38.64;100210.28;5054461;28;20226;-62
2023/09/08 11:15:09;;;;;;;0.00;0.00;;;;;;;38.00;38.71;100215.78;5061065;28;20125;-62
2023/09/08 11:17:39;;;;;;;0.00;0.00;;;;;;;37.82;39.02;100215.66;5062251;28;20024;-61
2023/09/08 11:20:08;;;;;;;0.00;0.00;;;;;;;38.11;38.38;100201.16;5054955;28;20515;-61